CFE4GA EGLC-EHRD
Flight info
| Callsign | CFE4GA |
|---|---|
| Flight time | 0h 36m |
| Altitude | 21000 |
| Route | ODUKU M84 CLN P44 RATLO M197 REDFA |
| Aircraft | E190/M-SDE3GILORVW/S |
Departure
| Time | 2026-04-27 19:24 |
|---|---|
| Airport | London City Airport (EGLC) |
Arrival
| Time | 2026-04-27 20:00 |
|---|---|
| Airport | Rotterdam The Hague Airport (EHRD) |
| Time | Latitude | Longitude | Altitude | Speed | Heading |
|---|---|---|---|---|---|
| 2026-04-27 19:03 | 51.50454 | 0.04446 | 23 ft | 0 kts | 317° |
| 2026-04-27 19:12 | 51.50453 | 0.04446 | 23 ft | 0 kts | 317° |
| 2026-04-27 19:22 | 51.50453 | 0.04447 | 23 ft | 0 kts | 316° |
| 2026-04-27 19:23 | 51.50454 | 0.04445 | 23 ft | 1 kts | 319° |
| 2026-04-27 19:23 | 51.50480 | 0.04438 | 23 ft | 7 kts | 356° |
| 2026-04-27 19:23 | 51.50540 | 0.04448 | 25 ft | 9 kts | 33° |
| 2026-04-27 19:24 | 51.50553 | 0.04558 | 23 ft | 15 kts | 91° |
| 2026-04-27 19:24 | 51.50534 | 0.05185 | 23 ft | 99 kts | 92° |
| 2026-04-27 19:24 | 51.50501 | 0.06680 | 253 ft | 153 kts | 90° |
| 2026-04-27 19:24 | 51.50464 | 0.08502 | 953 ft | 177 kts | 91° |
| 2026-04-27 19:25 | 51.50411 | 0.10460 | 1976 ft | 178 kts | 84° |
| 2026-04-27 19:25 | 51.50965 | 0.12226 | 2786 ft | 195 kts | 43° |
| 2026-04-27 19:25 | 51.52210 | 0.13481 | 3200 ft | 226 kts | 28° |
| 2026-04-27 19:25 | 51.53719 | 0.14768 | 3242 ft | 262 kts | 28° |
| 2026-04-27 19:26 | 51.55355 | 0.16260 | 3287 ft | 284 kts | 33° |
| 2026-04-27 19:26 | 51.56749 | 0.18582 | 3268 ft | 282 kts | 56° |
| 2026-04-27 19:26 | 51.57487 | 0.21167 | 3718 ft | 228 kts | 68° |
| 2026-04-27 19:26 | 51.58020 | 0.23573 | 3717 ft | 230 kts | 68° |
| 2026-04-27 19:27 | 51.58581 | 0.26034 | 3564 ft | 236 kts | 67° |
| 2026-04-27 19:27 | 51.59163 | 0.28487 | 3838 ft | 235 kts | 66° |
| 2026-04-27 19:27 | 51.59783 | 0.30931 | 4025 ft | 244 kts | 63° |
| 2026-04-27 19:27 | 51.60559 | 0.33439 | 4043 ft | 253 kts | 60° |
| 2026-04-27 19:28 | 51.61357 | 0.35954 | 4643 ft | 254 kts | 60° |
| 2026-04-27 19:28 | 51.62155 | 0.38544 | 5516 ft | 263 kts | 62° |
| 2026-04-27 19:28 | 51.62976 | 0.41226 | 6351 ft | 271 kts | 61° |
| 2026-04-27 19:28 | 51.63821 | 0.43984 | 7126 ft | 278 kts | 61° |
| 2026-04-27 19:29 | 51.64679 | 0.46800 | 7932 ft | 282 kts | 61° |
| 2026-04-27 19:29 | 51.65536 | 0.49663 | 8758 ft | 285 kts | 61° |
| 2026-04-27 19:29 | 51.66402 | 0.52545 | 9570 ft | 288 kts | 61° |
| 2026-04-27 19:29 | 51.67284 | 0.55475 | 10262 ft | 297 kts | 61° |
| 2026-04-27 19:30 | 51.68212 | 0.58551 | 10611 ft | 312 kts | 61° |
| 2026-04-27 19:30 | 51.69171 | 0.61747 | 11150 ft | 320 kts | 61° |
| 2026-04-27 19:30 | 51.70144 | 0.64997 | 11940 ft | 323 kts | 61° |
| 2026-04-27 19:30 | 51.71124 | 0.68271 | 12818 ft | 326 kts | 61° |
| 2026-04-27 19:31 | 51.72112 | 0.71578 | 13696 ft | 329 kts | 61° |
| 2026-04-27 19:31 | 51.73140 | 0.74895 | 14500 ft | 332 kts | 55° |
| 2026-04-27 19:31 | 51.74587 | 0.77795 | 15245 ft | 333 kts | 42° |
| 2026-04-27 19:31 | 51.76241 | 0.80444 | 16021 ft | 337 kts | 38° |
| 2026-04-27 19:32 | 51.78135 | 0.82650 | 16788 ft | 337 kts | 26° |
| 2026-04-27 19:32 | 51.80160 | 0.84599 | 17586 ft | 341 kts | 26° |
| 2026-04-27 19:32 | 51.82206 | 0.86584 | 18437 ft | 344 kts | 26° |
| 2026-04-27 19:32 | 51.84256 | 0.88639 | 19075 ft | 353 kts | 33° |
| 2026-04-27 19:33 | 51.85862 | 0.91726 | 19676 ft | 369 kts | 59° |
| 2026-04-27 19:33 | 51.86471 | 0.94318 | 20111 ft | 376 kts | 70° |
| 2026-04-27 19:33 | 51.87406 | 0.99833 | 20898 ft | 385 kts | 73° |
| 2026-04-27 19:33 | 51.88112 | 1.04048 | 21450 ft | 391 kts | 72° |
| 2026-04-27 19:34 | 51.88851 | 1.08327 | 21432 ft | 393 kts | 73° |
| 2026-04-27 19:34 | 51.89530 | 1.12526 | 21392 ft | 377 kts | 73° |
| 2026-04-27 19:34 | 51.90196 | 1.16574 | 21225 ft | 368 kts | 73° |
| 2026-04-27 19:34 | 51.90869 | 1.20612 | 21275 ft | 377 kts | 72° |
| 2026-04-27 19:35 | 51.91565 | 1.24749 | 21286 ft | 384 kts | 73° |
| 2026-04-27 19:35 | 51.92253 | 1.28947 | 21302 ft | 387 kts | 73° |
| 2026-04-27 19:35 | 51.92924 | 1.33184 | 21285 ft | 390 kts | 73° |
| 2026-04-27 19:35 | 51.93603 | 1.37442 | 21263 ft | 390 kts | 73° |
| 2026-04-27 19:36 | 51.94287 | 1.41688 | 21265 ft | 390 kts | 73° |
| 2026-04-27 19:36 | 51.94973 | 1.45938 | 21267 ft | 390 kts | 73° |
| 2026-04-27 19:36 | 51.95661 | 1.50200 | 21262 ft | 391 kts | 74° |
| 2026-04-27 19:36 | 51.96349 | 1.54470 | 21263 ft | 391 kts | 74° |
| 2026-04-27 19:37 | 51.97037 | 1.58737 | 21267 ft | 391 kts | 74° |
| 2026-04-27 19:37 | 51.97724 | 1.63012 | 21264 ft | 391 kts | 74° |
| 2026-04-27 19:37 | 51.98409 | 1.67280 | 21266 ft | 391 kts | 74° |
| 2026-04-27 19:37 | 51.99092 | 1.71552 | 21268 ft | 391 kts | 74° |
| 2026-04-27 19:38 | 51.99544 | 1.74380 | 21270 ft | 391 kts | 74° |
| 2026-04-27 19:38 | 52.00226 | 1.78658 | 21269 ft | 391 kts | 74° |
| 2026-04-27 19:38 | 52.00905 | 1.82930 | 21270 ft | 391 kts | 74° |
| 2026-04-27 19:38 | 52.01583 | 1.87208 | 21269 ft | 391 kts | 74° |
| 2026-04-27 19:39 | 52.02260 | 1.91484 | 21271 ft | 391 kts | 74° |
| 2026-04-27 19:39 | 52.02934 | 1.95758 | 21271 ft | 391 kts | 74° |
| 2026-04-27 19:39 | 52.03604 | 2.00043 | 21277 ft | 391 kts | 76° |
| 2026-04-27 19:39 | 52.04267 | 2.04326 | 21273 ft | 391 kts | 75° |
| 2026-04-27 19:40 | 52.04944 | 2.08601 | 21273 ft | 391 kts | 75° |
| 2026-04-27 19:40 | 52.05618 | 2.12881 | 21273 ft | 391 kts | 75° |
| 2026-04-27 19:40 | 52.06290 | 2.17159 | 21272 ft | 391 kts | 75° |
| 2026-04-27 19:40 | 52.06959 | 2.21438 | 21273 ft | 391 kts | 75° |
| 2026-04-27 19:41 | 52.07627 | 2.25720 | 21273 ft | 391 kts | 75° |
| 2026-04-27 19:41 | 52.08292 | 2.30000 | 21272 ft | 391 kts | 75° |
| 2026-04-27 19:41 | 52.08956 | 2.34282 | 21275 ft | 391 kts | 75° |
| 2026-04-27 19:41 | 52.09618 | 2.38566 | 21273 ft | 391 kts | 75° |
| 2026-04-27 19:42 | 52.10269 | 2.42855 | 21275 ft | 391 kts | 76° |
| 2026-04-27 19:42 | 52.10892 | 2.47155 | 21275 ft | 391 kts | 79° |
| 2026-04-27 19:42 | 52.10966 | 2.51585 | 21279 ft | 393 kts | 102° |
| 2026-04-27 19:42 | 52.10106 | 2.55765 | 21291 ft | 389 kts | 118° |
| 2026-04-27 19:43 | 52.08891 | 2.59687 | 21306 ft | 389 kts | 119° |
| 2026-04-27 19:43 | 52.07729 | 2.63570 | 21252 ft | 374 kts | 118° |
| 2026-04-27 19:43 | 52.06628 | 2.67315 | 20977 ft | 361 kts | 118° |
| 2026-04-27 19:43 | 52.05569 | 2.70950 | 20677 ft | 351 kts | 118° |
| 2026-04-27 19:44 | 52.04541 | 2.74496 | 20343 ft | 343 kts | 117° |
| 2026-04-27 19:44 | 52.03540 | 2.77973 | 19973 ft | 337 kts | 117° |
| 2026-04-27 19:44 | 52.02558 | 2.81397 | 19574 ft | 332 kts | 117° |
| 2026-04-27 19:44 | 52.01589 | 2.84782 | 19150 ft | 329 kts | 117° |
| 2026-04-27 19:45 | 52.00627 | 2.88140 | 18665 ft | 328 kts | 116° |
| 2026-04-27 19:45 | 51.99662 | 2.91490 | 18124 ft | 327 kts | 116° |
| 2026-04-27 19:45 | 51.98700 | 2.94839 | 17534 ft | 328 kts | 116° |
| 2026-04-27 19:45 | 51.97738 | 2.98193 | 16939 ft | 328 kts | 115° |
| 2026-04-27 19:46 | 51.97034 | 3.01666 | 16311 ft | 331 kts | 103° |
| 2026-04-27 19:46 | 51.96566 | 3.05325 | 15667 ft | 332 kts | 102° |
| 2026-04-27 19:46 | 51.96099 | 3.09014 | 14996 ft | 335 kts | 102° |
| 2026-04-27 19:46 | 51.95622 | 3.12735 | 14385 ft | 335 kts | 102° |
| 2026-04-27 19:47 | 51.95154 | 3.16332 | 14230 ft | 320 kts | 102° |
| 2026-04-27 19:47 | 51.94695 | 3.19821 | 13848 ft | 314 kts | 102° |
| 2026-04-27 19:47 | 51.94238 | 3.23269 | 13343 ft | 312 kts | 102° |
| 2026-04-27 19:47 | 51.93777 | 3.26710 | 12830 ft | 311 kts | 102° |
| 2026-04-27 19:48 | 51.93323 | 3.30091 | 12317 ft | 306 kts | 102° |
| 2026-04-27 19:48 | 51.92874 | 3.33432 | 11894 ft | 301 kts | 102° |
| 2026-04-27 19:48 | 51.92426 | 3.36741 | 11416 ft | 300 kts | 102° |
| 2026-04-27 19:48 | 51.91980 | 3.40021 | 11024 ft | 296 kts | 102° |
| 2026-04-27 19:49 | 51.91680 | 3.43262 | 10765 ft | 287 kts | 94° |
| 2026-04-27 19:49 | 51.91520 | 3.46467 | 10515 ft | 285 kts | 94° |
| 2026-04-27 19:49 | 51.91345 | 3.49674 | 10275 ft | 287 kts | 95° |
| 2026-04-27 19:49 | 51.91159 | 3.52902 | 10033 ft | 288 kts | 95° |
| 2026-04-27 19:50 | 51.90963 | 3.56124 | 9774 ft | 287 kts | 95° |
| 2026-04-27 19:50 | 51.90765 | 3.59335 | 9504 ft | 286 kts | 95° |
| 2026-04-27 19:50 | 51.90562 | 3.62537 | 9236 ft | 285 kts | 95° |
| 2026-04-27 19:50 | 51.90360 | 3.65725 | 8974 ft | 284 kts | 95° |
| 2026-04-27 19:51 | 51.90155 | 3.68896 | 8714 ft | 283 kts | 95° |
| 2026-04-27 19:51 | 51.89950 | 3.72053 | 8450 ft | 281 kts | 95° |
| 2026-04-27 19:51 | 51.89744 | 3.75194 | 8190 ft | 280 kts | 94° |
| 2026-04-27 19:51 | 51.89539 | 3.78316 | 7973 ft | 277 kts | 94° |
| 2026-04-27 19:52 | 51.89337 | 3.81377 | 8079 ft | 274 kts | 95° |
| 2026-04-27 19:52 | 51.89129 | 3.84505 | 7730 ft | 283 kts | 95° |
| 2026-04-27 19:52 | 51.88917 | 3.87670 | 7329 ft | 282 kts | 94° |
| 2026-04-27 19:52 | 51.88705 | 3.90807 | 6926 ft | 279 kts | 95° |
| 2026-04-27 19:53 | 51.88265 | 3.96965 | 6172 ft | 271 kts | 94° |
| 2026-04-27 19:53 | 51.88067 | 3.99977 | 5816 ft | 268 kts | 94° |
| 2026-04-27 19:53 | 51.87869 | 4.02961 | 5472 ft | 265 kts | 94° |
| 2026-04-27 19:54 | 51.87673 | 4.05833 | 5083 ft | 248 kts | 94° |
| 2026-04-27 19:54 | 51.87486 | 4.08513 | 4777 ft | 230 kts | 94° |
| 2026-04-27 19:54 | 51.87313 | 4.10969 | 4508 ft | 210 kts | 94° |
| 2026-04-27 19:54 | 51.87156 | 4.13226 | 4226 ft | 195 kts | 94° |
| 2026-04-27 19:55 | 51.87002 | 4.15328 | 4012 ft | 183 kts | 95° |
| 2026-04-27 19:55 | 51.86858 | 4.17269 | 3864 ft | 170 kts | 92° |
| 2026-04-27 19:55 | 51.86946 | 4.19103 | 3663 ft | 161 kts | 77° |
| 2026-04-27 19:55 | 51.87065 | 4.20895 | 3490 ft | 160 kts | 85° |
| 2026-04-27 19:56 | 51.87144 | 4.22689 | 3282 ft | 160 kts | 69° |
| 2026-04-27 19:56 | 51.87718 | 4.24190 | 3129 ft | 158 kts | 51° |
| 2026-04-27 19:56 | 51.88366 | 4.25626 | 2989 ft | 157 kts | 57° |
| 2026-04-27 19:56 | 51.88914 | 4.27151 | 2846 ft | 155 kts | 57° |
| 2026-04-27 19:57 | 51.89486 | 4.28556 | 2736 ft | 139 kts | 56° |
| 2026-04-27 19:57 | 51.90003 | 4.29787 | 2455 ft | 128 kts | 56° |
| 2026-04-27 19:57 | 51.90468 | 4.30937 | 2311 ft | 120 kts | 55° |
| 2026-04-27 19:57 | 51.90956 | 4.32048 | 2127 ft | 123 kts | 52° |
| 2026-04-27 19:58 | 51.91480 | 4.33151 | 1839 ft | 122 kts | 54° |
| 2026-04-27 19:58 | 51.91892 | 4.34375 | 1372 ft | 128 kts | 66° |
| 2026-04-27 19:58 | 51.92277 | 4.35578 | 1130 ft | 115 kts | 54° |
| 2026-04-27 19:58 | 51.92738 | 4.36618 | 933 ft | 113 kts | 55° |
| 2026-04-27 19:59 | 51.93163 | 4.37690 | 808 ft | 116 kts | 58° |
| 2026-04-27 19:59 | 51.93608 | 4.38799 | 656 ft | 116 kts | 54° |
| 2026-04-27 19:59 | 51.94050 | 4.39910 | 497 ft | 119 kts | 58° |
| 2026-04-27 19:59 | 51.94499 | 4.41052 | 330 ft | 122 kts | 56° |
| 2026-04-27 20:00 | 51.94970 | 4.42207 | 161 ft | 124 kts | 56° |
| 2026-04-27 20:00 | 51.95421 | 4.43344 | 19 ft | 119 kts | 57° |
| 2026-04-27 20:00 | 51.95814 | 4.44328 | -4 ft | 85 kts | 57° |
| 2026-04-27 20:00 | 51.96043 | 4.44908 | -6 ft | 41 kts | 57° |
| 2026-04-27 20:01 | 51.96148 | 4.45191 | -6 ft | 19 kts | 69° |
| 2026-04-27 20:01 | 51.96112 | 4.45378 | -6 ft | 19 kts | 135° |
| 2026-04-27 20:01 | 51.96095 | 4.45397 | -6 ft | 2 kts | 150° |
| 2026-04-27 20:01 | 51.96051 | 4.45398 | -6 ft | 11 kts | 216° |
| 2026-04-27 20:02 | 51.95981 | 4.45247 | -6 ft | 22 kts | 237° |
| 2026-04-27 20:02 | 51.95877 | 4.44987 | -6 ft | 32 kts | 237° |
| 2026-04-27 20:02 | 51.95753 | 4.44678 | -6 ft | 33 kts | 237° |
| 2026-04-27 20:02 | 51.95654 | 4.44427 | -6 ft | 17 kts | 237° |
| 2026-04-27 20:03 | 51.95587 | 4.44257 | -6 ft | 19 kts | 237° |
| 2026-04-27 20:03 | 51.95512 | 4.44065 | -6 ft | 21 kts | 237° |
| 2026-04-27 20:03 | 51.95427 | 4.43854 | -6 ft | 23 kts | 235° |
| 2026-04-27 20:03 | 51.95330 | 4.43627 | -7 ft | 26 kts | 235° |
| 2026-04-27 20:04 | 51.95288 | 4.43516 | -7 ft | 1 kts | 236° |
| 2026-04-27 20:04 | 51.95270 | 4.43473 | -7 ft | 6 kts | 236° |
| 2026-04-27 20:04 | 51.95245 | 4.43440 | -7 ft | 4 kts | 190° |
| 2026-04-27 20:04 | 51.95221 | 4.43457 | -7 ft | 3 kts | 149° |
| 2026-04-27 20:05 | 51.95207 | 4.43471 | -7 ft | 2 kts | 147° |
| 2026-04-27 20:05 | 51.95197 | 4.43482 | -7 ft | 2 kts | 147° |
| 2026-04-27 20:05 | 51.95171 | 4.43508 | -7 ft | 6 kts | 148° |
| 2026-04-27 20:05 | 51.95140 | 4.43539 | -7 ft | 5 kts | 148° |
| 2026-04-27 20:06 | 51.95117 | 4.43563 | -7 ft | 3 kts | 147° |
| 2026-04-27 20:06 | 51.95100 | 4.43571 | -7 ft | 2 kts | 178° |
| 2026-04-27 20:06 | 51.95094 | 4.43567 | -7 ft | 0 kts | 198° |
| 2026-04-27 20:06 | 51.95091 | 4.43561 | -7 ft | 2 kts | 225° |
| 2026-04-27 20:07 | 51.95088 | 4.43516 | -7 ft | 3 kts | 289° |
| 2026-04-27 20:07 | 51.95099 | 4.43501 | -7 ft | 3 kts | 322° |
| 2026-04-27 20:07 | 51.95112 | 4.43486 | -7 ft | 0 kts | 325° |
| 2026-04-27 20:12 | 51.95114 | 4.43483 | -9 ft | 0 kts | 327° |